sensor_id;sensor_type;location;lat;lon;timestamp;pressure;altitude;pressure_sealevel;temperature;humidity
77147;BME280;66121;52.584;9.694;2023-08-01T00:01:58;99567.28;;;16.07;100.00
77147;BME280;66121;52.584;9.694;2023-08-01T00:04:43;99577.63;;;16.06;100.00
77147;BME280;66121;52.584;9.694;2023-08-01T00:07:29;99560.84;;;15.97;100.00
77147;BME280;66121;52.584;9.694;2023-08-01T00:10:14;99550.91;;;15.96;100.00
77147;BME280;66121;52.584;9.694;2023-08-01T00:13:01;99540.13;;;15.98;100.00
77147;BME280;66121;52.584;9.694;2023-08-01T00:15:47;99527.09;;;15.95;100.00
77147;BME280;66121;52.584;9.694;2023-08-01T00:18:32;99540.78;;;16.02;100.00
77147;BME280;66121;52.584;9.694;2023-08-01T00:21:18;99530.97;;;15.98;100.00
77147;BME280;66121;52.584;9.694;2023-08-01T00:24:04;99528.88;;;16.02;100.00
77147;BME280;66121;52.584;9.694;2023-08-01T00:26:51;99509.09;;;15.87;100.00
77147;BME280;66121;52.584;9.694;2023-08-01T00:29:40;99521.66;;;15.92;100.00
77147;BME280;66121;52.584;9.694;2023-08-01T00:32:26;99521.09;;;15.97;100.00
77147;BME280;66121;52.584;9.694;2023-08-01T00:35:12;99511.31;;;15.92;100.00
77147;BME280;66121;52.584;9.694;2023-08-01T00:37:57;99481.84;;;15.82;100.00
77147;BME280;66121;52.584;9.694;2023-08-01T00:40:43;99509.72;;;16.04;100.00
77147;BME280;66121;52.584;9.694;2023-08-01T00:43:29;99489.94;;;15.89;100.00
77147;BME280;66121;52.584;9.694;2023-08-01T00:46:14;99483.91;;;15.91;100.00
77147;BME280;66121;52.584;9.694;2023-08-01T00:49:00;99490.50;;;15.97;100.00
77147;BME280;66121;52.584;9.694;2023-08-01T00:51:46;99488.28;;;15.92;100.00
77147;BME280;66121;52.584;9.694;2023-08-01T00:54:32;99502.06;;;15.95;100.00
77147;BME280;66121;52.584;9.694;2023-08-01T00:57:21;99484.59;;;15.95;100.00
77147;BME280;66121;52.584;9.694;2023-08-01T01:00:07;99486.28;;;15.92;100.00
77147;BME280;66121;52.584;9.694;2023-08-01T01:02:53;99474.47;;;15.88;100.00
77147;BME280;66121;52.584;9.694;2023-08-01T01:05:47;99463.91;;;15.83;100.00
77147;BME280;66121;52.584;9.694;2023-08-01T01:08:33;99476.50;;;15.88;100.00
77147;BME280;66121;52.584;9.694;2023-08-01T01:11:19;99447.03;;;15.78;100.00
77147;BME280;66121;52.584;9.694;2023-08-01T01:14:04;99476.69;;;15.93;100.00
77147;BME280;66121;52.584;9.694;2023-08-01T01:16:50;99448.91;;;15.81;100.00
77147;BME280;66121;52.584;9.694;2023-08-01T01:19:37;99455.34;;;15.90;100.00
77147;BME280;66121;52.584;9.694;2023-08-01T01:22:22;99458.78;;;15.94;100.00
77147;BME280;66121;52.584;9.694;2023-08-01T01:25:09;99428.31;;;15.78;100.00
77147;BME280;66121;52.584;9.694;2023-08-01T01:27:56;99438.41;;;15.97;100.00
77147;BME280;66121;52.584;9.694;2023-08-01T01:30:43;99450.66;;;16.00;100.00
77147;BME280;66121;52.584;9.694;2023-08-01T01:33:29;99458.84;;;16.03;100.00
77147;BME280;66121;52.584;9.694;2023-08-01T01:36:15;99433.09;;;15.90;100.00
77147;BME280;66121;52.584;9.694;2023-08-01T01:39:01;99432.84;;;15.97;100.00
77147;BME280;66121;52.584;9.694;2023-08-01T01:41:46;99452.59;;;16.12;100.00
77147;BME280;66121;52.584;9.694;2023-08-01T01:44:32;99429.94;;;16.01;100.00
77147;BME280;66121;52.584;9.694;2023-08-01T01:47:17;99436.81;;;16.09;100.00
77147;BME280;66121;52.584;9.694;2023-08-01T01:50:04;99419.47;;;16.05;100.00
77147;BME280;66121;52.584;9.694;2023-08-01T01:52:51;99427.81;;;16.05;100.00
77147;BME280;66121;52.584;9.694;2023-08-01T01:55:37;99385.84;;;15.78;100.00
77147;BME280;66121;52.584;9.694;2023-08-01T01:58:23;99398.81;;;15.81;100.00
77147;BME280;66121;52.584;9.694;2023-08-01T02:01:09;99423.94;;;16.02;100.00
77147;BME280;66121;52.584;9.694;2023-08-01T02:03:54;99410.00;;;16.02;100.00
77147;BME280;66121;52.584;9.694;2023-08-01T02:06:40;99416.22;;;16.06;100.00
77147;BME280;66121;52.584;9.694;2023-08-01T02:09:25;99381.25;;;15.84;100.00
77147;BME280;66121;52.584;9.694;2023-08-01T02:12:11;99387.75;;;16.02;100.00
77147;BME280;66121;52.584;9.694;2023-08-01T02:14:59;99384.97;;;16.02;100.00
77147;BME280;66121;52.584;9.694;2023-08-01T02:17:44;99362.19;;;15.95;100.00
77147;BME280;66121;52.584;9.694;2023-08-01T02:20:30;99372.81;;;16.09;100.00
77147;BME280;66121;52.584;9.694;2023-08-01T02:23:16;99373.69;;;16.06;100.00
77147;BME280;66121;52.584;9.694;2023-08-01T02:26:02;99372.59;;;16.03;100.00
77147;BME280;66121;52.584;9.694;2023-08-01T02:28:47;99372.28;;;16.01;100.00
77147;BME280;66121;52.584;9.694;2023-08-01T02:31:33;99382.38;;;16.08;100.00
77147;BME280;66121;52.584;9.694;2023-08-01T02:34:19;99372.16;;;16.05;100.00
77147;BME280;66121;52.584;9.694;2023-08-01T02:37:05;99359.84;;;15.93;100.00
77147;BME280;66121;52.584;9.694;2023-08-01T02:39:50;99349.81;;;15.96;100.00
77147;BME280;66121;52.584;9.694;2023-08-01T02:42:36;99337.91;;;15.95;100.00
77147;BME280;66121;52.584;9.694;2023-08-01T02:45:22;99358.44;;;16.10;100.00
77147;BME280;66121;52.584;9.694;2023-08-01T02:48:07;99352.84;;;16.10;100.00
77147;BME280;66121;52.584;9.694;2023-08-01T02:50:53;99345.66;;;16.00;100.00
77147;BME280;66121;52.584;9.694;2023-08-01T02:53:38;99346.97;;;16.08;100.00
77147;BME280;66121;52.584;9.694;2023-08-01T02:56:26;99344.50;;;16.10;100.00
77147;BME280;66121;52.584;9.694;2023-08-01T02:59:13;99328.66;;;15.98;100.00
77147;BME280;66121;52.584;9.694;2023-08-01T03:01:59;99339.94;;;15.95;100.00
77147;BME280;66121;52.584;9.694;2023-08-01T03:04:44;99359.59;;;16.00;100.00
77147;BME280;66121;52.584;9.694;2023-08-01T03:07:30;99340.84;;;15.92;100.00
77147;BME280;66121;52.584;9.694;2023-08-01T03:10:16;99331.50;;;15.86;100.00
77147;BME280;66121;52.584;9.694;2023-08-01T03:13:01;99325.09;;;15.76;100.00
77147;BME280;66121;52.584;9.694;2023-08-01T03:15:47;99321.78;;;15.69;100.00
77147;BME280;66121;52.584;9.694;2023-08-01T03:18:33;99306.34;;;15.68;100.00
77147;BME280;66121;52.584;9.694;2023-08-01T03:21:18;99306.28;;;15.80;100.00
77147;BME280;66121;52.584;9.694;2023-08-01T03:24:04;99310.50;;;15.85;100.00
77147;BME280;66121;52.584;9.694;2023-08-01T03:26:53;99296.06;;;15.77;100.00
77147;BME280;66121;52.584;9.694;2023-08-01T03:29:39;99282.41;;;15.70;100.00
77147;BME280;66121;52.584;9.694;2023-08-01T03:32:25;99278.69;;;15.73;100.00
77147;BME280;66121;52.584;9.694;2023-08-01T03:35:11;99291.41;;;15.74;100.00
77147;BME280;66121;52.584;9.694;2023-08-01T03:37:56;99284.84;;;15.68;100.00
77147;BME280;66121;52.584;9.694;2023-08-01T03:40:42;99282.22;;;15.65;100.00
77147;BME280;66121;52.584;9.694;2023-08-01T03:43:27;99276.69;;;15.52;100.00
77147;BME280;66121;52.584;9.694;2023-08-01T03:46:13;99272.91;;;15.46;100.00
77147;BME280;66121;52.584;9.694;2023-08-01T03:48:59;99302.97;;;15.73;100.00
77147;BME280;66121;52.584;9.694;2023-08-01T03:51:44;99276.81;;;15.48;100.00
77147;BME280;66121;52.584;9.694;2023-08-01T03:54:30;99277.88;;;15.64;100.00
77147;BME280;66121;52.584;9.694;2023-08-01T03:57:16;99293.72;;;15.76;100.00
77147;BME280;66121;52.584;9.694;2023-08-01T04:00:02;99308.88;;;15.75;100.00
77147;BME280;66121;52.584;9.694;2023-08-01T04:02:48;99311.75;;;15.71;100.00
77147;BME280;66121;52.584;9.694;2023-08-01T04:05:34;99293.06;;;15.50;100.00
77147;BME280;66121;52.584;9.694;2023-08-01T04:08:20;99279.59;;;15.48;100.00
77147;BME280;66121;52.584;9.694;2023-08-01T04:11:05;99311.56;;;15.66;100.00
77147;BME280;66121;52.584;9.694;2023-08-01T04:13:51;99300.56;;;15.62;100.00
77147;BME280;66121;52.584;9.694;2023-08-01T04:16:37;99305.34;;;15.62;100.00
77147;BME280;66121;52.584;9.694;2023-08-01T04:19:22;99326.13;;;15.70;100.00
77147;BME280;66121;52.584;9.694;2023-08-01T04:22:08;99309.16;;;15.55;100.00
77147;BME280;66121;52.584;9.694;2023-08-01T04:24:54;99326.94;;;15.58;100.00
77147;BME280;66121;52.584;9.694;2023-08-01T04:27:40;99306.06;;;15.40;100.00
77147;BME280;66121;52.584;9.694;2023-08-01T04:30:26;99314.19;;;15.48;100.00
77147;BME280;66121;52.584;9.694;2023-08-01T04:33:11;99321.97;;;15.53;100.00
77147;BME280;66121;52.584;9.694;2023-08-01T04:35:57;99321.97;;;15.53;100.00
77147;BME280;66121;52.584;9.694;2023-08-01T04:38:43;99268.19;;;15.21;100.00
77147;BME280;66121;52.584;9.694;2023-08-01T04:41:28;99288.63;;;15.27;100.00
77147;BME280;66121;52.584;9.694;2023-08-01T04:44:14;99312.72;;;15.43;100.00
77147;BME280;66121;52.584;9.694;2023-08-01T04:46:59;99318.28;;;15.43;100.00
77147;BME280;66121;52.584;9.694;2023-08-01T04:49:45;99263.13;;;15.07;100.00
77147;BME280;66121;52.584;9.694;2023-08-01T04:52:31;99279.44;;;15.18;100.00
77147;BME280;66121;52.584;9.694;2023-08-01T04:55:16;99309.06;;;15.33;100.00
77147;BME280;66121;52.584;9.694;2023-08-01T04:58:02;99298.88;;;15.30;100.00
77147;BME280;66121;52.584;9.694;2023-08-01T05:00:47;99291.75;;;15.29;100.00
77147;BME280;66121;52.584;9.694;2023-08-01T05:03:33;99313.94;;;15.42;100.00
77147;BME280;66121;52.584;9.694;2023-08-01T05:06:19;99296.94;;;15.40;100.00
77147;BME280;66121;52.584;9.694;2023-08-01T05:09:04;99305.72;;;15.38;100.00
77147;BME280;66121;52.584;9.694;2023-08-01T05:11:50;99305.06;;;15.34;100.00
77147;BME280;66121;52.584;9.694;2023-08-01T05:14:36;99317.63;;;15.39;100.00
77147;BME280;66121;52.584;9.694;2023-08-01T05:17:21;99303.41;;;15.37;100.00
77147;BME280;66121;52.584;9.694;2023-08-01T05:20:07;99323.38;;;15.44;100.00
77147;BME280;66121;52.584;9.694;2023-08-01T05:22:53;99315.63;;;15.39;100.00
77147;BME280;66121;52.584;9.694;2023-08-01T05:25:39;99312.72;;;15.43;100.00
77147;BME280;66121;52.584;9.694;2023-08-01T05:28:24;99343.41;;;15.52;100.00
77147;BME280;66121;52.584;9.694;2023-08-01T05:31:10;99315.41;;;15.46;100.00
77147;BME280;66121;52.584;9.694;2023-08-01T05:33:56;99292.38;;;15.33;100.00
77147;BME280;66121;52.584;9.694;2023-08-01T05:36:41;99325.16;;;15.51;100.00
77147;BME280;66121;52.584;9.694;2023-08-01T05:39:27;99296.16;;;15.39;100.00
77147;BME280;66121;52.584;9.694;2023-08-01T05:42:12;99324.59;;;15.56;100.00
77147;BME280;66121;52.584;9.694;2023-08-01T05:44:58;99333.03;;;15.65;100.00
77147;BME280;66121;52.584;9.694;2023-08-01T05:47:44;99336.16;;;15.67;100.00
77147;BME280;66121;52.584;9.694;2023-08-01T05:50:29;99325.97;;;15.73;100.00
77147;BME280;66121;52.584;9.694;2023-08-01T05:53:15;99330.97;;;15.78;100.00
77147;BME280;66121;52.584;9.694;2023-08-01T05:56:00;99323.16;;;15.86;100.00
77147;BME280;66121;52.584;9.694;2023-08-01T05:58:46;99345.63;;;15.91;100.00
77147;BME280;66121;52.584;9.694;2023-08-01T06:01:32;99345.09;;;15.84;100.00
77147;BME280;66121;52.584;9.694;2023-08-01T06:04:17;99345.75;;;15.88;100.00
77147;BME280;66121;52.584;9.694;2023-08-01T06:07:03;99329.66;;;15.83;100.00
77147;BME280;66121;52.584;9.694;2023-08-01T06:09:50;99342.25;;;15.75;100.00
77147;BME280;66121;52.584;9.694;2023-08-01T06:12:39;99342.88;;;15.79;100.00
77147;BME280;66121;52.584;9.694;2023-08-01T06:15:24;99344.25;;;15.74;100.00
77147;BME280;66121;52.584;9.694;2023-08-01T06:18:10;99348.91;;;15.77;100.00
77147;BME280;66121;52.584;9.694;2023-08-01T06:20:57;99339.47;;;15.75;100.00
77147;BME280;66121;52.584;9.694;2023-08-01T06:23:42;99353.75;;;15.86;100.00
77147;BME280;66121;52.584;9.694;2023-08-01T06:26:28;99338.50;;;15.90;100.00
77147;BME280;66121;52.584;9.694;2023-08-01T06:29:13;99325.69;;;15.93;100.00
77147;BME280;66121;52.584;9.694;2023-08-01T06:31:59;99340.31;;;16.06;100.00
77147;BME280;66121;52.584;9.694;2023-08-01T06:34:45;99313.66;;;15.96;100.00
77147;BME280;66121;52.584;9.694;2023-08-01T06:37:30;99320.91;;;16.15;100.00
77147;BME280;66121;52.584;9.694;2023-08-01T06:40:16;99305.13;;;16.12;100.00
77147;BME280;66121;52.584;9.694;2023-08-01T06:43:02;99344.84;;;16.34;100.00
77147;BME280;66121;52.584;9.694;2023-08-01T06:45:47;99313.84;;;16.23;100.00
77147;BME280;66121;52.584;9.694;2023-08-01T06:48:33;99317.97;;;16.19;100.00
77147;BME280;66121;52.584;9.694;2023-08-01T06:51:21;99335.19;;;16.26;100.00
77147;BME280;66121;52.584;9.694;2023-08-01T06:54:07;99337.41;;;16.31;100.00
77147;BME280;66121;52.584;9.694;2023-08-01T06:56:53;99329.44;;;16.21;100.00
77147;BME280;66121;52.584;9.694;2023-08-01T06:59:38;99322.84;;;16.27;100.00
77147;BME280;66121;52.584;9.694;2023-08-01T07:02:24;99333.31;;;16.45;100.00
77147;BME280;66121;52.584;9.694;2023-08-01T07:05:10;99366.16;;;16.81;100.00
77147;BME280;66121;52.584;9.694;2023-08-01T07:07:56;99343.75;;;16.84;100.00
77147;BME280;66121;52.584;9.694;2023-08-01T07:10:43;99357.72;;;16.93;100.00
77147;BME280;66121;52.584;9.694;2023-08-01T07:13:29;99353.66;;;16.85;100.00
77147;BME280;66121;52.584;9.694;2023-08-01T07:16:14;99364.44;;;17.05;100.00
77147;BME280;66121;52.584;9.694;2023-08-01T07:19:00;99378.50;;;17.01;100.00
77147;BME280;66121;52.584;9.694;2023-08-01T07:25:53;99380.25;;;17.17;100.00
77147;BME280;66121;52.584;9.694;2023-08-01T07:32:05;99338.59;;;16.73;100.00
77147;BME280;66121;52.584;9.694;2023-08-01T07:35:22;99316.28;;;16.64;100.00
77147;BME280;66121;52.584;9.694;2023-08-01T07:38:13;99317.50;;;17.03;100.00
77147;BME280;66121;52.584;9.694;2023-08-01T07:45:25;99328.09;;;16.78;100.00
77147;BME280;66121;52.584;9.694;2023-08-01T07:48:17;99398.03;;;17.10;100.00
77147;BME280;66121;52.584;9.694;2023-08-01T07:51:40;99398.25;;;17.25;100.00
77147;BME280;66121;52.584;9.694;2023-08-01T07:57:57;99376.09;;;18.07;100.00
77147;BME280;66121;52.584;9.694;2023-08-01T08:01:13;99391.13;;;19.14;100.00
77147;BME280;66121;52.584;9.694;2023-08-01T08:03:59;99362.66;;;18.83;98.50
77147;BME280;66121;52.584;9.694;2023-08-01T08:06:46;99366.44;;;18.53;100.00
77147;BME280;66121;52.584;9.694;2023-08-01T08:09:32;99312.34;;;18.05;100.00
77147;BME280;66121;52.584;9.694;2023-08-01T08:12:24;99382.13;;;18.32;100.00
77147;BME280;66121;52.584;9.694;2023-08-01T08:15:13;99347.63;;;19.13;100.00
77147;BME280;66121;52.584;9.694;2023-08-01T08:18:12;99391.13;;;19.71;93.58
77147;BME280;66121;52.584;9.694;2023-08-01T08:21:16;99330.34;;;19.15;93.48
77147;BME280;66121;52.584;9.694;2023-08-01T08:24:07;99362.63;;;19.25;96.16
77147;BME280;66121;52.584;9.694;2023-08-01T08:26:53;99327.97;;;19.55;93.84
77147;BME280;66121;52.584;9.694;2023-08-01T08:29:48;99326.88;;;20.29;91.05
77147;BME280;66121;52.584;9.694;2023-08-01T08:33:17;99322.34;;;19.79;87.19
77147;BME280;66121;52.584;9.694;2023-08-01T08:36:13;99324.25;;;20.84;86.51
77147;BME280;66121;52.584;9.694;2023-08-01T08:39:24;99364.41;;;20.61;87.68
77147;BME280;66121;52.584;9.694;2023-08-01T08:42:10;99326.53;;;19.98;86.13
77147;BME280;66121;52.584;9.694;2023-08-01T08:45:16;99302.72;;;19.17;89.07
77147;BME280;66121;52.584;9.694;2023-08-01T08:48:09;99339.44;;;19.34;90.56
77147;BME280;66121;52.584;9.694;2023-08-01T08:50:59;99353.69;;;19.36;90.55
77147;BME280;66121;52.584;9.694;2023-08-01T08:53:45;99353.59;;;20.54;87.90
77147;BME280;66121;52.584;9.694;2023-08-01T08:56:33;99318.22;;;20.71;83.78
77147;BME280;66121;52.584;9.694;2023-08-01T08:59:20;99355.22;;;19.93;84.15
77147;BME280;66121;52.584;9.694;2023-08-01T09:02:06;99320.38;;;19.70;86.79
77147;BME280;66121;52.584;9.694;2023-08-01T09:04:52;99355.94;;;20.17;84.85
77147;BME280;66121;52.584;9.694;2023-08-01T09:07:41;99360.44;;;20.38;83.46
77147;BME280;66121;52.584;9.694;2023-08-01T09:10:27;99331.16;;;20.54;81.72
77147;BME280;66121;52.584;9.694;2023-08-01T09:13:13;99368.44;;;21.04;82.27
77147;BME280;66121;52.584;9.694;2023-08-01T09:16:01;99344.94;;;20.87;81.54
77147;BME280;66121;52.584;9.694;2023-08-01T09:18:51;99342.81;;;21.11;81.65
77147;BME280;66121;52.584;9.694;2023-08-01T09:21:38;99348.00;;;22.13;77.35
77147;BME280;66121;52.584;9.694;2023-08-01T09:24:24;99373.88;;;21.97;78.20
77147;BME280;66121;52.584;9.694;2023-08-01T09:27:10;99365.91;;;21.55;79.23
77147;BME280;66121;52.584;9.694;2023-08-01T09:30:05;99361.22;;;22.07;80.02
77147;BME280;66121;52.584;9.694;2023-08-01T09:32:54;99357.13;;;20.98;78.85
77147;BME280;66121;52.584;9.694;2023-08-01T09:35:40;99361.50;;;20.26;82.16
77147;BME280;66121;52.584;9.694;2023-08-01T09:38:26;99370.59;;;19.74;82.76
77147;BME280;66121;52.584;9.694;2023-08-01T09:41:18;99381.13;;;19.79;83.90
77147;BME280;66121;52.584;9.694;2023-08-01T09:44:04;99354.16;;;20.58;82.22
77147;BME280;66121;52.584;9.694;2023-08-01T09:47:00;99372.41;;;20.97;80.38
77147;BME280;66121;52.584;9.694;2023-08-01T09:49:49;99369.44;;;21.91;74.49
77147;BME280;66121;52.584;9.694;2023-08-01T09:52:39;99372.59;;;22.44;71.27
77147;BME280;66121;52.584;9.694;2023-08-01T09:55:32;99372.28;;;22.62;74.02
77147;BME280;66121;52.584;9.694;2023-08-01T09:58:21;99343.25;;;21.99;71.72
77147;BME280;66121;52.584;9.694;2023-08-01T10:01:07;99366.22;;;21.98;72.13
77147;BME280;66121;52.584;9.694;2023-08-01T10:03:55;99354.06;;;22.58;73.31
77147;BME280;66121;52.584;9.694;2023-08-01T10:06:45;99363.84;;;22.62;68.37
77147;BME280;66121;52.584;9.694;2023-08-01T10:09:32;99362.53;;;22.89;68.87
77147;BME280;66121;52.584;9.694;2023-08-01T10:12:19;99371.72;;;22.32;72.85
77147;BME280;66121;52.584;9.694;2023-08-01T10:15:05;99358.69;;;21.34;71.08
77147;BME280;66121;52.584;9.694;2023-08-01T10:17:51;99372.50;;;22.33;72.22
77147;BME280;66121;52.584;9.694;2023-08-01T10:20:37;99339.97;;;22.78;66.97
77147;BME280;66121;52.584;9.694;2023-08-01T10:23:23;99356.34;;;23.16;62.51
77147;BME280;66121;52.584;9.694;2023-08-01T10:26:11;99356.97;;;22.63;66.86
77147;BME280;66121;52.584;9.694;2023-08-01T10:28:57;99366.13;;;23.21;65.00
77147;BME280;66121;52.584;9.694;2023-08-01T10:31:53;99353.72;;;23.38;62.17
77147;BME280;66121;52.584;9.694;2023-08-01T10:34:39;99355.41;;;23.67;59.35
77147;BME280;66121;52.584;9.694;2023-08-01T10:37:25;99373.19;;;23.42;62.64
77147;BME280;66121;52.584;9.694;2023-08-01T10:40:11;99354.47;;;22.45;64.63
77147;BME280;66121;52.584;9.694;2023-08-01T10:42:56;99363.47;;;22.03;66.27
77147;BME280;66121;52.584;9.694;2023-08-01T10:45:42;99357.34;;;23.07;66.20
77147;BME280;66121;52.584;9.694;2023-08-01T10:48:28;99366.66;;;22.88;65.87
77147;BME280;66121;52.584;9.694;2023-08-01T10:51:13;99336.22;;;22.92;63.40
77147;BME280;66121;52.584;9.694;2023-08-01T10:53:59;99351.59;;;23.28;65.21
77147;BME280;66121;52.584;9.694;2023-08-01T10:56:45;99351.19;;;23.40;66.53
77147;BME280;66121;52.584;9.694;2023-08-01T10:59:32;99338.41;;;23.08;63.04
77147;BME280;66121;52.584;9.694;2023-08-01T11:02:23;99356.94;;;24.21;66.98
77147;BME280;66121;52.584;9.694;2023-08-01T11:05:09;99348.38;;;23.40;66.22
77147;BME280;66121;52.584;9.694;2023-08-01T11:07:55;99366.41;;;23.23;65.61
77147;BME280;66121;52.584;9.694;2023-08-01T11:10:49;99325.53;;;23.33;62.66
77147;BME280;66121;52.584;9.694;2023-08-01T11:13:34;99356.56;;;22.76;64.96
77147;BME280;66121;52.584;9.694;2023-08-01T11:16:21;99353.53;;;23.16;62.34
77147;BME280;66121;52.584;9.694;2023-08-01T11:19:18;99373.84;;;23.31;61.61
77147;BME280;66121;52.584;9.694;2023-08-01T11:22:08;99365.31;;;23.15;59.60
77147;BME280;66121;52.584;9.694;2023-08-01T11:24:54;99369.13;;;23.43;62.75
77147;BME280;66121;52.584;9.694;2023-08-01T11:27:40;99351.53;;;22.34;64.35
77147;BME280;66121;52.584;9.694;2023-08-01T11:30:31;99354.41;;;21.18;64.97
77147;BME280;66121;52.584;9.694;2023-08-01T11:33:21;99384.72;;;20.56;74.32
77147;BME280;66121;52.584;9.694;2023-08-01T11:36:08;99393.84;;;18.91;87.95
77147;BME280;66121;52.584;9.694;2023-08-01T11:38:58;99407.56;;;18.43;97.46
77147;BME280;66121;52.584;9.694;2023-08-01T11:41:44;99410.69;;;18.09;99.14
77147;BME280;66121;52.584;9.694;2023-08-01T11:44:30;99405.34;;;17.17;100.00
77147;BME280;66121;52.584;9.694;2023-08-01T11:47:17;99412.53;;;17.94;100.00
77147;BME280;66121;52.584;9.694;2023-08-01T11:50:03;99406.47;;;18.23;100.00
77147;BME280;66121;52.584;9.694;2023-08-01T11:52:50;99420.75;;;18.43;99.21
77147;BME280;66121;52.584;9.694;2023-08-01T11:55:36;99373.78;;;17.96;99.83
77147;BME280;66121;52.584;9.694;2023-08-01T12:01:15;99425.25;;;19.60;99.44
77147;BME280;66121;52.584;9.694;2023-08-01T12:04:01;99412.69;;;19.79;93.02
77147;BME280;66121;52.584;9.694;2023-08-01T12:06:47;99437.38;;;21.25;95.69
77147;BME280;66121;52.584;9.694;2023-08-01T12:09:32;99419.50;;;20.79;91.82
77147;BME280;66121;52.584;9.694;2023-08-01T12:12:18;99415.19;;;21.42;90.34
77147;BME280;66121;52.584;9.694;2023-08-01T12:15:04;99403.81;;;20.87;88.97
77147;BME280;66121;52.584;9.694;2023-08-01T12:17:50;99383.91;;;20.26;87.18
77147;BME280;66121;52.584;9.694;2023-08-01T12:21:05;99393.59;;;19.54;89.46
77147;BME280;66121;52.584;9.694;2023-08-01T12:23:51;99380.84;;;18.79;95.31
77147;BME280;66121;52.584;9.694;2023-08-01T12:26:36;99386.63;;;18.48;98.28
77147;BME280;66121;52.584;9.694;2023-08-01T12:29:22;99390.22;;;18.21;100.00
77147;BME280;66121;52.584;9.694;2023-08-01T12:32:08;99381.38;;;17.77;99.36
77147;BME280;66121;52.584;9.694;2023-08-01T12:34:53;99367.66;;;17.03;100.00
77147;BME280;66121;52.584;9.694;2023-08-01T12:37:39;99400.22;;;17.15;100.00
77147;BME280;66121;52.584;9.694;2023-08-01T12:40:25;99407.63;;;17.09;100.00
77147;BME280;66121;52.584;9.694;2023-08-01T12:43:10;99413.13;;;17.22;100.00
77147;BME280;66121;52.584;9.694;2023-08-01T12:45:56;99377.91;;;17.15;100.00
77147;BME280;66121;52.584;9.694;2023-08-01T12:48:43;99431.72;;;17.25;100.00
77147;BME280;66121;52.584;9.694;2023-08-01T12:51:29;99445.56;;;17.07;100.00
77147;BME280;66121;52.584;9.694;2023-08-01T12:54:15;99426.31;;;16.69;100.00
77147;BME280;66121;52.584;9.694;2023-08-01T12:57:01;99455.47;;;16.43;100.00
77147;BME280;66121;52.584;9.694;2023-08-01T12:59:47;99439.59;;;16.31;100.00
77147;BME280;66121;52.584;9.694;2023-08-01T13:02:33;99472.66;;;16.41;100.00
77147;BME280;66121;52.584;9.694;2023-08-01T13:05:19;99469.69;;;16.23;100.00
77147;BME280;66121;52.584;9.694;2023-08-01T13:08:05;99481.81;;;16.29;100.00
77147;BME280;66121;52.584;9.694;2023-08-01T13:10:51;99477.69;;;16.34;100.00
77147;BME280;66121;52.584;9.694;2023-08-01T13:13:37;99491.22;;;16.57;100.00
77147;BME280;66121;52.584;9.694;2023-08-01T13:16:22;99479.94;;;16.60;100.00
77147;BME280;66121;52.584;9.694;2023-08-01T13:19:08;99501.91;;;16.80;100.00
77147;BME280;66121;52.584;9.694;2023-08-01T13:21:54;99463.88;;;16.64;100.00
77147;BME280;66121;52.584;9.694;2023-08-01T13:24:39;99496.84;;;16.88;100.00
77147;BME280;66121;52.584;9.694;2023-08-01T13:27:25;99477.53;;;16.93;100.00
77147;BME280;66121;52.584;9.694;2023-08-01T13:30:11;99475.91;;;17.05;100.00
77147;BME280;66121;52.584;9.694;2023-08-01T13:33:00;99487.19;;;17.32;100.00
77147;BME280;66121;52.584;9.694;2023-08-01T13:35:45;99482.56;;;17.38;100.00
77147;BME280;66121;52.584;9.694;2023-08-01T13:38:31;99482.91;;;17.80;100.00
77147;BME280;66121;52.584;9.694;2023-08-01T13:41:16;99461.13;;;18.60;100.00
77147;BME280;66121;52.584;9.694;2023-08-01T13:44:02;99471.13;;;19.03;98.76
77147;BME280;66121;52.584;9.694;2023-08-01T13:46:48;99479.63;;;19.26;96.16
77147;BME280;66121;52.584;9.694;2023-08-01T13:49:34;99479.69;;;18.90;98.24
77147;BME280;66121;52.584;9.694;2023-08-01T13:52:19;99483.47;;;18.69;97.38
77147;BME280;66121;52.584;9.694;2023-08-01T13:55:05;99486.25;;;18.78;98.77
77147;BME280;66121;52.584;9.694;2023-08-01T13:57:52;99493.31;;;19.66;97.66
77147;BME280;66121;52.584;9.694;2023-08-01T14:00:38;99479.34;;;19.90;94.83
77147;BME280;66121;52.584;9.694;2023-08-01T14:03:23;99485.59;;;19.01;95.75
77147;BME280;66121;52.584;9.694;2023-08-01T14:06:11;99502.56;;;18.52;96.75
77147;BME280;66121;52.584;9.694;2023-08-01T14:08:56;99474.78;;;18.49;98.54
77147;BME280;66121;52.584;9.694;2023-08-01T14:11:42;99498.75;;;19.19;98.77
77147;BME280;66121;52.584;9.694;2023-08-01T14:14:28;99492.25;;;19.64;95.90
77147;BME280;66121;52.584;9.694;2023-08-01T14:17:16;99523.81;;;20.44;91.99
77147;BME280;66121;52.584;9.694;2023-08-01T14:20:04;99486.78;;;20.26;89.23
77147;BME280;66121;52.584;9.694;2023-08-01T14:22:50;99507.91;;;20.03;90.19
77147;BME280;66121;52.584;9.694;2023-08-01T14:25:36;99506.56;;;19.89;93.05
77147;BME280;66121;52.584;9.694;2023-08-01T14:28:22;99499.28;;;19.83;91.57
77147;BME280;66121;52.584;9.694;2023-08-01T14:31:07;99492.13;;;19.58;92.99
77147;BME280;66121;52.584;9.694;2023-08-01T14:33:53;99499.56;;;20.18;90.81
77147;BME280;66121;52.584;9.694;2023-08-01T14:36:38;99500.50;;;20.15;87.64
77147;BME280;66121;52.584;9.694;2023-08-01T14:39:24;99518.03;;;20.24;89.80
77147;BME280;66121;52.584;9.694;2023-08-01T14:42:10;99493.34;;;19.90;90.42
77147;BME280;66121;52.584;9.694;2023-08-01T14:44:55;99475.28;;;19.67;89.72
77147;BME280;66121;52.584;9.694;2023-08-01T14:47:42;99515.75;;;19.57;91.51
77147;BME280;66121;52.584;9.694;2023-08-01T14:50:28;99504.94;;;19.23;90.58
77147;BME280;66121;52.584;9.694;2023-08-01T14:53:14;99493.94;;;19.10;91.34
77147;BME280;66121;52.584;9.694;2023-08-01T14:55:59;99485.34;;;18.72;96.34